Bill Bridges - 9S1
(Top Gun)
12/20/17 12:04 AM
ATIS at KATL

I'm listening to the KATL ATIS tonight and the weather is reported as -

KATL 200258Z 21005KT 1/8SM R09R/P6000FT BR OVC002 16/16 A3012 RMK AO2 SFC VIS 1 1/2 T01560156 "Bird activity in area."

I'm thinking, "Really all the B1Rds are walking tonight." :))

Bill



Contact Us AVSIG

Powered by UBB.threads™ 6.5.5

Logout   Main Index    AVSIG Aviation Forum